createdAt,value
2018-04-07T00:00:12.708Z,38.97
2018-04-07T00:02:42.222Z,40.13
2018-04-07T00:05:11.802Z,39.17
2018-04-07T00:07:40.607Z,37.70
2018-04-07T00:10:10.217Z,40.13
2018-04-07T00:12:39.967Z,38.73
2018-04-07T00:15:08.799Z,38.43
2018-04-07T00:17:37.613Z,38.73
2018-04-07T00:20:07.200Z,38.37
2018-04-07T00:22:36.056Z,39.30
2018-04-07T00:25:05.097Z,38.90
2018-04-07T00:27:33.865Z,39.43
2018-04-07T00:30:02.588Z,36.83
2018-04-07T00:32:32.066Z,39.30
2018-04-07T00:35:00.970Z,38.43
2018-04-07T00:37:30.600Z,39.93
2018-04-07T00:39:59.696Z,40.37
2018-04-07T00:42:28.704Z,37.73
2018-04-07T00:44:58.566Z,36.80
2018-04-07T00:47:27.497Z,39.13
2018-04-07T00:49:56.511Z,39.00
2018-04-07T00:52:25.341Z,38.63
2018-04-07T00:54:54.234Z,38.90
2018-04-07T00:57:23.063Z,37.13
2018-04-07T00:59:51.956Z,38.63
2018-04-07T01:02:20.903Z,38.50
2018-04-07T01:04:49.733Z,38.33
2018-04-07T01:07:18.780Z,37.53
2018-04-07T01:09:47.513Z,37.00
2018-04-07T01:12:16.375Z,36.93
2018-04-07T01:14:45.939Z,38.00
2018-04-07T01:17:14.669Z,37.47
2018-04-07T01:19:43.458Z,35.60
2018-04-07T01:22:12.939Z,37.50
2018-04-07T01:24:41.795Z,36.53
2018-04-07T01:27:10.518Z,36.87
2018-04-07T01:29:39.328Z,36.03
2018-04-07T01:32:08.074Z,35.57
2018-04-07T01:34:36.899Z,35.07
2018-04-07T01:37:05.790Z,37.60
2018-04-07T01:39:36.467Z,35.70
2018-04-07T01:42:05.203Z,34.37
2018-04-07T01:44:34.028Z,35.50
2018-04-07T01:47:02.984Z,36.13
2018-04-07T01:49:32.140Z,36.77
2018-04-07T01:52:01.098Z,35.50
2018-04-07T01:54:30.682Z,36.50
2018-04-07T01:56:59.418Z,35.60
2018-04-07T01:59:28.256Z,36.57
2018-04-07T02:01:56.960Z,35.23
2018-04-07T02:04:25.826Z,37.30
2018-04-07T02:06:54.578Z,35.60
2018-04-07T02:09:23.304Z,35.57
2018-04-07T02:11:52.096Z,36.40
2018-04-07T02:14:21.797Z,34.70
2018-04-07T02:16:50.598Z,36.03
2018-04-07T02:19:20.096Z,36.67
2018-04-07T02:21:48.916Z,39.70
2018-04-07T02:24:17.899Z,38.53
2018-04-07T02:26:47.515Z,38.33
2018-04-07T02:29:16.251Z,39.20
2018-04-07T02:31:45.504Z,40.47
2018-04-07T02:34:14.233Z,38.33
2018-04-07T02:36:43.052Z,38.27
2018-04-07T02:39:11.810Z,36.13
2018-04-07T02:41:40.677Z,37.53
2018-04-07T02:44:09.359Z,36.33
2018-04-07T02:46:38.161Z,37.10
2018-04-07T02:49:07.087Z,37.87
2018-04-07T02:51:36.694Z,36.20
2018-04-07T02:54:05.492Z,34.93
2018-04-07T02:56:35.302Z,36.60
2018-04-07T02:59:04.117Z,36.70
2018-04-07T03:01:32.835Z,35.60
2018-04-07T03:04:01.733Z,35.77
2018-04-07T03:06:30.905Z,36.90
2018-04-07T03:08:59.727Z,36.50
2018-04-07T03:11:28.765Z,35.77
2018-04-07T03:13:57.490Z,34.87
2018-04-07T03:16:26.181Z,34.67
2018-04-07T03:18:54.918Z,33.77
2018-04-07T03:21:23.676Z,35.87
2018-04-07T03:23:52.644Z,35.17
2018-04-07T03:26:21.350Z,33.97
2018-04-07T03:28:50.320Z,34.20
2018-04-07T03:31:19.028Z,32.23
2018-04-07T03:33:48.827Z,33.33
2018-04-07T03:36:17.542Z,32.03
2018-04-07T03:38:46.593Z,33.77
2018-04-07T03:41:15.371Z,31.93
2018-04-07T03:43:44.877Z,32.70
2018-04-07T03:46:14.566Z,34.17
2018-04-07T03:48:44.579Z,32.57
2018-04-07T03:51:13.383Z,33.30
2018-04-07T03:53:43.068Z,34.00
2018-04-07T03:56:11.927Z,33.00
2018-04-07T03:58:41.178Z,33.03
2018-04-07T04:01:10.774Z,31.67
2018-04-07T04:03:40.506Z,31.27
2018-04-07T04:06:09.526Z,32.23
2018-04-07T04:08:38.534Z,34.07
2018-04-07T04:11:08.335Z,34.03
2018-04-07T04:13:37.210Z,33.27
2018-04-07T04:16:06.988Z,35.30
2018-04-07T04:18:36.082Z,35.43
2018-04-07T04:21:04.861Z,35.27
2018-04-07T04:23:33.708Z,35.00
2018-04-07T04:26:02.494Z,36.20
2018-04-07T04:28:31.330Z,36.37
2018-04-07T04:31:00.125Z,36.63
2018-04-07T04:33:29.695Z,35.77
2018-04-07T04:35:58.642Z,37.10
2018-04-07T04:38:28.210Z,35.67
2018-04-07T04:40:57.084Z,37.57
2018-04-07T04:43:26.254Z,37.57
2018-04-07T04:45:55.056Z,37.80
2018-04-07T04:48:24.018Z,37.73
2018-04-07T04:50:52.849Z,36.80
2018-04-07T04:53:22.558Z,35.23
2018-04-07T04:55:51.322Z,34.20
2018-04-07T04:58:20.137Z,37.50
2018-04-07T05:00:49.014Z,34.97
2018-04-07T05:03:17.781Z,34.00
2018-04-07T05:05:46.539Z,34.23
2018-04-07T05:08:15.520Z,35.53
2018-04-07T05:10:44.246Z,35.57
2018-04-07T05:13:13.128Z,36.20
2018-04-07T05:15:42.346Z,37.40
2018-04-07T05:18:11.137Z,36.57
2018-04-07T05:20:39.947Z,36.93
2018-04-07T05:23:08.999Z,37.67
2018-04-07T05:25:37.778Z,38.90
2018-04-07T05:28:07.667Z,37.17
2018-04-07T05:30:37.200Z,38.70
2018-04-07T05:33:06.729Z,36.70
2018-04-07T05:35:35.557Z,39.70
2018-04-07T05:38:05.225Z,43.57
2018-04-07T05:40:33.991Z,39.60
2018-04-07T05:43:02.836Z,42.93
2018-04-07T05:45:32.632Z,42.10
2018-04-07T05:48:01.419Z,43.87
2018-04-07T05:50:30.295Z,43.27
2018-04-07T05:52:59.444Z,41.40
2018-04-07T05:55:31.243Z,37.77
2018-04-07T05:58:01.528Z,36.67
2018-04-07T06:00:30.511Z,35.37
2018-04-07T06:02:59.345Z,36.33
2018-04-07T06:05:28.904Z,38.10
2018-04-07T06:07:57.762Z,40.07
2018-04-07T06:10:26.590Z,38.83
2018-04-07T06:12:55.320Z,37.90
2018-04-07T06:15:24.390Z,35.90
2018-04-07T06:17:53.253Z,37.43
2018-04-07T06:20:22.122Z,37.00
2018-04-07T06:22:51.065Z,36.60
2018-04-07T06:25:35.576Z,34.70
2018-04-07T06:28:05.813Z,34.47
2018-04-07T06:30:34.608Z,35.23
2018-04-07T06:33:03.484Z,35.93
2018-04-07T06:35:32.523Z,34.87
2018-04-07T06:38:02.196Z,33.87
2018-04-07T06:40:31.331Z,34.67
2018-04-07T06:43:00.924Z,34.63
2018-04-07T06:45:30.510Z,34.87
2018-04-07T06:47:59.341Z,33.83
2018-04-07T06:50:29.135Z,34.40
2018-04-07T06:52:57.935Z,32.03
2018-04-07T06:55:26.739Z,32.70
2018-04-07T06:57:56.549Z,32.20
2018-04-07T07:00:25.775Z,33.80
2018-04-07T07:02:54.839Z,33.33
2018-04-07T07:05:24.620Z,31.60
2018-04-07T07:07:53.701Z,33.27
2018-04-07T07:10:23.324Z,32.10
2018-04-07T07:12:52.116Z,30.30
2018-04-07T07:15:20.993Z,31.43
2018-04-07T07:17:50.545Z,32.83
2018-04-07T07:20:30.103Z,30.83
2018-04-07T07:22:59.062Z,36.53
2018-04-07T07:25:27.951Z,31.90
2018-04-07T07:27:57.573Z,29.97
2018-04-07T07:30:26.640Z,31.43
2018-04-07T07:32:56.192Z,31.70
2018-04-07T07:35:24.970Z,30.97
2018-04-07T07:37:53.830Z,32.97
2018-04-07T07:40:22.904Z,39.03
2018-04-07T07:42:51.779Z,35.87
2018-04-07T07:45:20.799Z,32.37
2018-04-07T07:47:50.708Z,33.17
2018-04-07T07:52:55.723Z,36.50
2018-04-07T07:55:24.590Z,36.03
2018-04-07T07:57:54.119Z,35.07
2018-04-07T08:00:23.001Z,36.27
2018-04-07T08:02:52.662Z,33.10
2018-04-07T08:05:21.913Z,32.30
2018-04-07T08:07:52.065Z,34.33
2018-04-07T08:10:22.259Z,33.80
2018-04-07T08:12:51.075Z,35.30
2018-04-07T08:15:19.832Z,36.03
2018-04-07T08:17:48.531Z,37.10
2018-04-07T08:20:17.438Z,35.53
2018-04-07T08:22:46.185Z,34.57
2018-04-07T08:25:15.174Z,35.33
2018-04-07T08:27:44.020Z,35.73
2018-04-07T08:30:12.854Z,35.80
2018-04-07T08:32:43.807Z,34.27
2018-04-07T08:37:47.518Z,35.37
2018-04-07T08:40:16.310Z,35.33
2018-04-07T08:42:45.341Z,37.40
2018-04-07T08:45:14.247Z,35.73
2018-04-07T08:47:43.839Z,37.53
2018-04-07T08:50:12.641Z,37.07
2018-04-07T08:52:41.421Z,36.97
2018-04-07T08:55:10.515Z,37.47
2018-04-07T08:57:39.514Z,37.83
2018-04-07T09:00:09.128Z,40.03
2018-04-07T09:02:38.698Z,41.90
2018-04-07T09:05:07.503Z,49.77
2018-04-07T09:07:36.246Z,39.63
2018-04-07T09:10:05.999Z,58.77
2018-04-07T09:12:34.831Z,38.90
2018-04-07T09:15:05.128Z,38.13
2018-04-07T09:17:34.309Z,40.07
2018-04-07T09:20:03.278Z,39.50
2018-04-07T09:22:33.253Z,40.17
2018-04-07T09:25:03.073Z,35.33
2018-04-07T09:27:32.282Z,34.10
2018-04-07T09:30:01.973Z,35.13
2018-04-07T09:32:30.809Z,36.53
2018-04-07T09:34:59.628Z,36.17
2018-04-07T09:37:29.313Z,35.53
2018-04-07T09:39:58.871Z,35.83
2018-04-07T09:42:28.609Z,34.80
2018-04-07T09:44:57.367Z,37.90
2018-04-07T09:47:27.118Z,36.30
2018-04-07T09:49:56.072Z,36.23
2018-04-07T09:52:25.655Z,32.90
2018-04-07T09:54:54.463Z,40.10
2018-04-07T09:57:24.254Z,35.70
2018-04-07T09:59:53.438Z,40.67
2018-04-07T10:02:23.459Z,42.87
2018-04-07T10:04:52.215Z,38.40
2018-04-07T10:07:21.246Z,35.53
2018-04-07T10:09:49.971Z,50.00
2018-04-07T10:12:18.783Z,63.70
2018-04-07T10:14:47.972Z,46.20
2018-04-07T10:17:17.009Z,36.27
2018-04-07T10:19:45.736Z,33.37
2018-04-07T10:22:15.466Z,38.50
2018-04-07T10:24:44.498Z,38.20
2018-04-07T10:27:13.241Z,37.53
2018-04-07T10:29:42.247Z,44.03
2018-04-07T10:32:11.742Z,35.53
2018-04-07T10:34:41.305Z,29.43
2018-04-07T10:37:10.912Z,32.80
2018-04-07T10:39:40.447Z,32.30
2018-04-07T10:42:10.376Z,34.30
2018-04-07T10:44:40.337Z,32.80
2018-04-07T10:47:09.150Z,36.03
2018-04-07T10:49:37.991Z,35.80
2018-04-07T10:52:06.820Z,36.63
2018-04-07T10:54:36.601Z,39.40
2018-04-07T10:57:06.618Z,34.87
2018-04-07T10:59:35.859Z,33.60
2018-04-07T11:02:04.778Z,38.10
2018-04-07T11:04:33.612Z,39.17
2018-04-07T11:07:02.404Z,37.40
2018-04-07T11:09:31.133Z,43.40
2018-04-07T11:12:00.878Z,32.17
2018-04-07T11:14:30.856Z,37.83
2018-04-07T11:16:59.678Z,37.73
2018-04-07T11:19:28.464Z,38.30
2018-04-07T11:21:57.462Z,35.80
2018-04-07T11:24:26.240Z,35.43
2018-04-07T11:26:54.940Z,49.53
2018-04-07T11:29:23.763Z,50.13
2018-04-07T11:31:52.486Z,43.97
2018-04-07T11:34:22.185Z,34.20
2018-04-07T11:36:52.182Z,32.93
2018-04-07T11:39:20.946Z,33.10
2018-04-07T11:41:49.718Z,32.80
2018-04-07T11:44:19.340Z,34.80
2018-04-07T11:46:48.379Z,35.40
2018-04-07T11:49:17.954Z,39.43
2018-04-07T11:51:46.699Z,40.03
2018-04-07T11:54:15.561Z,40.43
2018-04-07T11:56:45.172Z,36.43
2018-04-07T11:59:13.988Z,34.47
2018-04-07T12:01:42.811Z,42.73
2018-04-07T12:04:12.371Z,36.40
2018-04-07T12:06:42.384Z,39.90
2018-04-07T12:09:11.164Z,58.60
2018-04-07T12:11:40.149Z,46.97
2018-04-07T12:14:08.980Z,76.20
2018-04-07T12:16:38.083Z,46.80
2018-04-07T12:19:06.854Z,47.77
2018-04-07T12:21:36.578Z,52.33
2018-04-07T12:24:05.390Z,38.70
2018-04-07T12:26:34.989Z,34.87
2018-04-07T12:29:03.758Z,35.50
2018-04-07T12:31:32.566Z,35.43
2018-04-07T12:34:01.665Z,36.20
2018-04-07T12:36:30.658Z,39.40
2018-04-07T12:38:59.430Z,37.20
2018-04-07T12:41:28.264Z,45.83
2018-04-07T12:43:57.810Z,43.33
2018-04-07T12:46:26.598Z,41.00
2018-04-07T12:48:55.418Z,41.60
2018-04-07T12:51:24.190Z,44.67
2018-04-07T12:53:53.824Z,42.33
2018-04-07T12:56:23.435Z,50.73
2018-04-07T12:58:52.217Z,47.87
2018-04-07T13:01:21.124Z,40.77
2018-04-07T13:03:50.707Z,42.87
2018-04-07T13:06:19.641Z,37.70
2018-04-07T13:08:49.392Z,58.90
2018-04-07T13:11:18.097Z,36.60
2018-04-07T13:13:46.941Z,36.67
2018-04-07T13:16:16.246Z,32.77
2018-04-07T13:18:45.134Z,37.83
2018-04-07T13:21:14.026Z,35.50
2018-04-07T13:23:43.625Z,36.77
2018-04-07T13:26:12.409Z,37.37
2018-04-07T13:28:42.211Z,36.13
2018-04-07T13:31:11.746Z,34.70
2018-04-07T13:33:40.851Z,37.57
2018-04-07T13:36:09.892Z,34.50
2018-04-07T13:38:39.606Z,38.67
2018-04-07T13:41:09.183Z,39.23
2018-04-07T13:43:38.249Z,35.03
2018-04-07T13:46:07.066Z,34.73
2018-04-07T13:48:35.891Z,42.83
2018-04-07T13:51:04.769Z,36.77
2018-04-07T13:53:33.587Z,43.13
2018-04-07T13:56:02.358Z,49.93
2018-04-07T13:58:32.041Z,42.50
2018-04-07T14:01:01.720Z,35.43
2018-04-07T14:03:30.542Z,37.10
2018-04-07T14:05:59.253Z,33.30
2018-04-07T14:08:28.035Z,33.20
2018-04-07T14:10:57.586Z,31.47
2018-04-07T14:13:26.483Z,32.53
2018-04-07T14:15:55.374Z,36.53
2018-04-07T14:18:24.130Z,38.20
2018-04-07T14:20:53.836Z,41.87
2018-04-07T14:23:22.634Z,38.37
2018-04-07T14:25:52.343Z,34.13
2018-04-07T14:28:21.473Z,34.70
2018-04-07T14:30:50.468Z,33.67
2018-04-07T14:33:21.197Z,41.63
2018-04-07T14:35:50.906Z,43.07
2018-04-07T14:38:20.895Z,47.60
2018-04-07T14:40:52.902Z,46.93
2018-04-07T14:43:22.102Z,42.97
2018-04-07T14:45:52.187Z,37.47
2018-04-07T14:48:21.875Z,33.13
2018-04-07T14:50:52.583Z,36.67
2018-04-07T14:53:23.919Z,36.63
2018-04-07T14:55:53.094Z,36.00
2018-04-07T14:58:24.611Z,37.37
2018-04-07T15:00:55.200Z,39.53
2018-04-07T15:03:25.916Z,44.00
2018-04-07T15:05:54.783Z,48.10
2018-04-07T15:08:25.551Z,39.60
2018-04-07T15:10:55.518Z,35.70
2018-04-07T15:13:26.534Z,31.77
2018-04-07T15:15:55.908Z,32.33
2018-04-07T15:18:24.888Z,35.30
2018-04-07T15:20:55.489Z,35.63
2018-04-07T15:23:24.816Z,34.93
2018-04-07T15:25:55.600Z,31.83
2018-04-07T15:28:25.520Z,28.87
2018-04-07T15:30:55.349Z,30.13
2018-04-07T15:33:24.123Z,34.57
2018-04-07T15:35:54.233Z,57.37
2018-04-07T15:38:25.173Z,65.57
2018-04-07T15:40:56.532Z,49.93
2018-04-07T15:43:29.290Z,34.47
2018-04-07T15:45:59.596Z,34.23
2018-04-07T15:48:29.537Z,59.07
2018-04-07T15:50:59.413Z,66.10
2018-04-07T15:53:30.006Z,84.90
2018-04-07T15:56:00.919Z,62.97
2018-04-07T15:58:31.533Z,30.67
2018-04-07T16:01:00.844Z,28.97
2018-04-07T16:03:30.850Z,27.63
2018-04-07T16:06:01.767Z,29.47
2018-04-07T16:08:31.396Z,27.53
2018-04-07T16:11:02.296Z,27.67
2018-04-07T16:13:33.013Z,53.10
2018-04-07T16:16:01.791Z,40.80
2018-04-07T16:18:31.465Z,45.47
2018-04-07T16:21:02.385Z,44.70
2018-04-07T16:23:32.734Z,34.40
2018-04-07T16:26:02.377Z,35.43
2018-04-07T16:28:34.238Z,38.97
2018-04-07T16:31:03.188Z,39.30
2018-04-07T16:33:32.962Z,45.87
2018-04-07T16:36:03.154Z,50.17
2018-04-07T16:38:33.086Z,71.60
2018-04-07T16:41:03.044Z,77.93
2018-04-07T16:43:32.047Z,55.43
2018-04-07T16:46:01.515Z,54.70
2018-04-07T16:48:32.124Z,54.63
2018-04-07T16:51:02.535Z,45.50
2018-04-07T16:53:32.372Z,36.47
2018-04-07T16:56:01.187Z,33.90
2018-04-07T16:58:30.055Z,31.83
2018-04-07T17:00:58.774Z,31.10
2018-04-07T17:03:27.877Z,32.20
2018-04-07T17:05:56.822Z,30.00
2018-04-07T17:08:25.738Z,35.43
2018-04-07T17:10:55.399Z,29.50
2018-04-07T17:13:25.045Z,29.63
2018-04-07T17:15:54.403Z,31.73
2018-04-07T17:18:23.333Z,41.07
2018-04-07T17:20:52.528Z,58.00
2018-04-07T17:23:21.502Z,55.10
2018-04-07T17:25:50.716Z,52.93
2018-04-07T17:28:20.016Z,77.80
2018-04-07T17:30:51.028Z,71.23
2018-04-07T17:33:20.197Z,58.73
2018-04-07T17:35:49.263Z,57.13
2018-04-07T17:38:18.284Z,58.70
2018-04-07T17:40:48.143Z,63.57
2018-04-07T17:43:17.127Z,59.00
2018-04-07T17:45:46.109Z,63.43
2018-04-07T17:48:15.228Z,64.13
2018-04-07T17:50:44.381Z,55.87
2018-04-07T17:53:13.459Z,45.03
2018-04-07T17:55:42.362Z,55.93
2018-04-07T17:58:11.434Z,54.70
2018-04-07T18:00:41.280Z,49.67
2018-04-07T18:03:10.940Z,46.30
2018-04-07T18:05:39.804Z,48.87
2018-04-07T18:08:09.554Z,48.07
2018-04-07T18:10:38.789Z,46.83
2018-04-07T18:13:14.482Z,45.83
2018-04-07T18:15:45.401Z,49.10
2018-04-07T18:18:14.884Z,52.80
2018-04-07T18:20:48.550Z,45.13
2018-04-07T18:23:24.307Z,49.83
2018-04-07T18:25:58.132Z,43.83
2018-04-07T18:28:34.360Z,46.03
2018-04-07T18:31:06.460Z,49.77
2018-04-07T18:33:37.235Z,47.37
2018-04-07T18:36:13.049Z,44.57
2018-04-07T18:38:46.429Z,43.07
2018-04-07T18:41:19.335Z,45.07
2018-04-07T18:43:54.091Z,45.87
2018-04-07T18:46:27.543Z,45.93
2018-04-07T18:49:02.441Z,46.27
2018-04-07T18:51:37.476Z,46.73
2018-04-07T18:54:12.267Z,45.87
2018-04-07T18:56:49.154Z,46.93
2018-04-07T18:59:26.951Z,44.17
2018-04-07T19:02:02.275Z,43.40
2018-04-07T19:04:34.081Z,41.90
2018-04-07T19:07:04.167Z,40.87
2018-04-07T19:09:41.700Z,40.60
2018-04-07T19:12:15.983Z,41.17
2018-04-07T19:14:50.973Z,43.03
2018-04-07T19:17:26.432Z,43.23
2018-04-07T19:20:01.093Z,47.60
2018-04-07T19:22:35.814Z,44.80
2018-04-07T19:25:11.177Z,45.57
2018-04-07T19:27:44.049Z,51.40
2018-04-07T19:30:20.129Z,52.57
2018-04-07T19:32:52.653Z,60.47
2018-04-07T19:35:22.680Z,56.83
2018-04-07T19:37:58.942Z,53.37
2018-04-07T19:40:33.970Z,47.90
2018-04-07T19:43:08.699Z,48.83
2018-04-07T19:45:40.551Z,46.43
2018-04-07T19:48:10.493Z,49.83
2018-04-07T19:50:40.701Z,55.33
2018-04-07T19:53:10.605Z,62.87
2018-04-07T19:55:40.176Z,80.43
2018-04-07T19:58:10.507Z,59.33
2018-04-07T20:00:40.105Z,57.93
2018-04-07T20:03:09.672Z,59.33
2018-04-07T20:05:39.124Z,61.43
2018-04-07T20:08:09.666Z,55.93
2018-04-07T20:10:40.116Z,51.33
2018-04-07T20:13:09.741Z,48.20
2018-04-07T20:15:39.514Z,49.93
2018-04-07T20:18:09.943Z,70.83
2018-04-07T20:20:39.673Z,64.10
2018-04-07T20:23:09.276Z,56.33
2018-04-07T20:25:39.275Z,60.77
2018-04-07T20:28:09.657Z,63.90
2018-04-07T20:30:40.385Z,53.03
2018-04-07T20:33:10.029Z,46.97
2018-04-07T20:35:39.560Z,49.80
2018-04-07T20:38:09.315Z,55.93
2018-04-07T20:40:38.851Z,55.13
2018-04-07T20:43:15.411Z,54.20
2018-04-07T20:45:46.264Z,53.50
2018-04-07T20:48:16.944Z,46.80
2018-04-07T20:50:46.733Z,45.80
2018-04-07T20:53:17.576Z,44.70
2018-04-07T20:55:47.642Z,45.10
2018-04-07T20:58:18.231Z,43.63
2018-04-07T21:00:48.069Z,44.13
2018-04-07T21:03:17.705Z,44.20
2018-04-07T21:05:48.214Z,46.17
2018-04-07T21:08:18.108Z,44.83
2018-04-07T21:10:47.839Z,45.70
2018-04-07T21:13:17.446Z,44.27
2018-04-07T21:15:46.905Z,45.37
2018-04-07T21:18:16.876Z,43.10
2018-04-07T21:20:46.032Z,41.77
2018-04-07T21:23:15.520Z,44.10
2018-04-07T21:25:44.812Z,43.93
2018-04-07T21:28:14.034Z,41.87
2018-04-07T21:30:43.155Z,42.73
2018-04-07T21:33:12.064Z,42.30
2018-04-07T21:35:41.723Z,39.47
2018-04-07T21:38:11.022Z,40.67
2018-04-07T21:40:39.849Z,43.00
2018-04-07T21:43:08.607Z,45.27
2018-04-07T21:45:37.406Z,47.50
2018-04-07T21:48:06.191Z,50.23
2018-04-07T21:50:36.061Z,49.83
2018-04-07T21:53:04.892Z,48.13
2018-04-07T21:55:33.869Z,53.80
2018-04-07T21:58:02.772Z,48.50
2018-04-07T22:00:32.363Z,48.13
2018-04-07T22:03:01.184Z,46.00
2018-04-07T22:05:30.049Z,44.13
2018-04-07T22:07:58.883Z,46.23
2018-04-07T22:10:27.751Z,48.30
2018-04-07T22:12:56.972Z,48.17
2018-04-07T22:15:26.175Z,50.27
2018-04-07T22:17:54.990Z,51.67
2018-04-07T22:20:24.699Z,51.50
2018-04-07T22:22:53.443Z,51.57
2018-04-07T22:25:23.061Z,48.70
2018-04-07T22:27:51.929Z,49.63
2018-04-07T22:30:21.084Z,46.10
2018-04-07T22:32:49.952Z,41.40
2018-04-07T22:35:18.879Z,43.70
2018-04-07T22:37:47.723Z,42.27
2018-04-07T22:40:17.100Z,43.53
2018-04-07T22:42:45.912Z,45.73
2018-04-07T22:45:14.778Z,44.03
2018-04-07T22:47:43.617Z,43.23
2018-04-07T22:50:12.371Z,42.20
2018-04-07T22:52:41.130Z,42.60
2018-04-07T22:55:09.922Z,43.03
2018-04-07T22:57:38.671Z,42.77
2018-04-07T23:00:07.573Z,43.03
2018-04-07T23:02:36.888Z,43.50
2018-04-07T23:05:05.798Z,43.13
2018-04-07T23:07:35.250Z,41.90
2018-04-07T23:10:04.048Z,43.20
2018-04-07T23:12:32.891Z,42.93
2018-04-07T23:15:02.880Z,40.40
2018-04-07T23:17:31.685Z,42.20
2018-04-07T23:20:02.235Z,42.03
2018-04-07T23:22:31.807Z,41.50
2018-04-07T23:25:00.706Z,41.80
2018-04-07T23:27:30.489Z,43.17
2018-04-07T23:29:59.343Z,44.53
2018-04-07T23:32:28.187Z,44.77
2018-04-07T23:34:57.023Z,43.53
2018-04-07T23:37:25.822Z,44.63
2018-04-07T23:39:54.869Z,45.00
2018-04-07T23:42:24.479Z,45.33
2018-04-07T23:44:53.306Z,45.93
2018-04-07T23:47:22.076Z,44.67
2018-04-07T23:49:50.955Z,45.57
2018-04-07T23:52:20.598Z,44.63
2018-04-07T23:54:49.364Z,47.47
2018-04-07T23:57:18.928Z,45.93
2018-04-07T23:59:48.505Z,44.13
